Terminal Aerodrome Forecast
Issued by NWS

Home | Current Version | Previous Version | Text Only | Print | Product List | Glossary On
Versions: 1 2 3 4 5 6 7 8 9 10 11 12 13 14 15 16 17 18 19 20 21 22 23 24 25 26 27
000
FTUS45 KREV 261742 AAA
TAFRNO
TAF AMD
KRNO 261742Z 2618/2718 24008KT P6SM SCT035 BKN050 WS010/25050KT
     FM262000 28018G30KT P6SM BKN050 BKN100
     FM270500 30012G24KT P6SM SCT050 BKN100
     FM271100 34010G16KT P6SM SCT100 BKN200=

USA.gov is the U.S. government's official web portal to all federal, state and local government web resources and services.